createdAt,value
2019-03-15T00:02:50.883Z,1.33
2019-03-15T00:05:57.883Z,11.73
2019-03-15T00:09:11.131Z,1.67
2019-03-15T00:12:20.337Z,2.23
2019-03-15T00:15:28.853Z,1.03
2019-03-15T00:18:38.287Z,2.93
2019-03-15T00:21:45.156Z,2.70
2019-03-15T00:24:54.064Z,1.90
2019-03-15T00:28:01.424Z,3.90
2019-03-15T00:31:08.556Z,7.93
2019-03-15T00:34:26.176Z,4.17
2019-03-15T00:37:33.394Z,3.40
2019-03-15T00:40:40.227Z,5.00
2019-03-15T00:43:49.405Z,2.90
2019-03-15T00:46:55.721Z,4.33
2019-03-15T00:50:03.256Z,2.93
2019-03-15T00:53:10.224Z,2.20
2019-03-15T00:56:17.882Z,1.93
2019-03-15T00:59:30.619Z,2.13
2019-03-15T01:02:46.700Z,1.97
2019-03-15T01:05:53.619Z,1.93
2019-03-15T01:09:00.557Z,0.70
2019-03-15T01:12:11.847Z,3.90
2019-03-15T01:15:18.724Z,2.00
2019-03-15T01:18:25.655Z,1.70
2019-03-15T01:21:32.603Z,2.57
2019-03-15T01:24:39.543Z,4.43
2019-03-15T01:27:48.131Z,5.43
2019-03-15T01:30:55.091Z,1.77
2019-03-15T01:34:02.024Z,4.13
2019-03-15T01:37:10.112Z,2.73
2019-03-15T01:40:23.716Z,4.90
2019-03-15T01:43:36.416Z,1.67
2019-03-15T01:50:18.231Z,2.23
2019-03-15T01:53:25.180Z,7.87
2019-03-15T01:56:32.884Z,8.00
2019-03-15T01:59:46.415Z,3.13
2019-03-15T02:02:53.282Z,3.37
2019-03-15T02:06:00.184Z,5.70
2019-03-15T02:09:09.345Z,2.73
2019-03-15T02:12:15.791Z,3.10
2019-03-15T02:15:25.259Z,1.47
2019-03-15T02:18:33.669Z,6.20
2019-03-15T02:21:40.548Z,5.40
2019-03-15T02:24:47.402Z,10.37
2019-03-15T02:27:54.312Z,4.13
2019-03-15T02:31:02.154Z,6.10
2019-03-15T02:34:09.092Z,6.63
2019-03-15T02:37:16.036Z,6.43
2019-03-15T02:40:22.972Z,6.60
2019-03-15T02:43:40.474Z,4.83
2019-03-15T02:46:47.388Z,3.23
2019-03-15T02:49:56.644Z,5.47
2019-03-15T02:53:04.347Z,6.90
2019-03-15T02:56:14.588Z,6.57
2019-03-15T02:59:21.104Z,4.93
2019-03-15T03:02:29.346Z,7.80
2019-03-15T03:05:40.445Z,10.50
2019-03-15T03:08:47.385Z,5.30
2019-03-15T03:11:54.315Z,9.43
2019-03-15T03:15:01.267Z,8.53
2019-03-15T03:18:08.235Z,3.83
2019-03-15T03:21:15.360Z,6.00
2019-03-15T03:24:22.396Z,5.70
2019-03-15T03:27:29.341Z,4.63
2019-03-15T03:30:36.296Z,2.77
2019-03-15T03:33:43.331Z,4.57
2019-03-15T03:36:50.328Z,7.13
2019-03-15T03:39:57.317Z,9.97
2019-03-15T03:43:04.198Z,9.43
2019-03-15T03:46:11.079Z,6.67
2019-03-15T03:49:17.927Z,9.97
2019-03-15T03:52:25.229Z,6.50
2019-03-15T03:55:32.244Z,8.63
2019-03-15T03:58:39.690Z,9.73
2019-03-15T04:01:46.521Z,3.60
2019-03-15T04:04:53.415Z,8.60
2019-03-15T04:08:00.874Z,6.27
2019-03-15T04:11:08.030Z,7.07
2019-03-15T04:14:14.812Z,8.57
2019-03-15T04:17:21.835Z,5.43
2019-03-15T04:20:28.897Z,8.47
2019-03-15T04:23:38.187Z,6.23
2019-03-15T04:26:45.616Z,10.73
2019-03-15T04:29:52.544Z,8.83
2019-03-15T04:33:00.071Z,8.70
2019-03-15T04:36:06.876Z,12.63
2019-03-15T04:39:14.206Z,5.77
2019-03-15T04:42:21.080Z,10.37
2019-03-15T04:45:27.935Z,5.90
2019-03-15T04:48:35.275Z,9.43
2019-03-15T04:51:42.872Z,7.87
2019-03-15T04:54:49.681Z,5.43
2019-03-15T04:57:57.271Z,10.37
2019-03-15T05:01:04.252Z,12.07
2019-03-15T05:04:11.213Z,13.03
2019-03-15T05:07:18.092Z,9.17
2019-03-15T05:10:24.912Z,6.50
2019-03-15T05:13:31.824Z,6.00
2019-03-15T05:16:38.881Z,5.10
2019-03-15T05:19:45.696Z,7.23
2019-03-15T05:22:52.546Z,8.93
2019-03-15T05:25:59.603Z,6.67
2019-03-15T05:29:06.433Z,9.37
2019-03-15T05:32:13.238Z,8.17
2019-03-15T05:35:20.059Z,9.73
2019-03-15T05:38:27.622Z,13.83
2019-03-15T05:41:36.781Z,8.57
2019-03-15T05:44:43.552Z,15.03
2019-03-15T05:47:50.375Z,6.27
2019-03-15T05:50:57.238Z,6.53
2019-03-15T05:54:05.201Z,6.90
2019-03-15T05:57:12.050Z,5.30
2019-03-15T06:00:20.664Z,8.87
2019-03-15T06:03:27.559Z,14.47
2019-03-15T06:06:36.185Z,7.00
2019-03-15T06:09:48.126Z,5.93
2019-03-15T06:12:55.036Z,8.70
2019-03-15T06:16:01.951Z,5.77
2019-03-15T06:19:08.906Z,7.00
2019-03-15T06:22:15.792Z,13.83
2019-03-15T06:25:22.605Z,8.43
2019-03-15T06:28:29.406Z,12.33
2019-03-15T06:31:36.256Z,7.07
2019-03-15T06:34:43.962Z,8.17
2019-03-15T06:37:50.822Z,11.27
2019-03-15T06:40:57.819Z,6.83
2019-03-15T06:44:04.747Z,11.13
2019-03-15T06:47:12.455Z,11.13
2019-03-15T06:50:19.482Z,6.77
2019-03-15T06:53:33.884Z,9.83
2019-03-15T06:56:40.843Z,14.73
2019-03-15T06:59:47.673Z,9.40
2019-03-15T07:02:54.510Z,8.00
2019-03-15T07:06:01.328Z,8.03
2019-03-15T07:09:08.617Z,10.80
2019-03-15T07:12:15.501Z,6.73
2019-03-15T07:15:22.369Z,9.97
2019-03-15T07:18:29.266Z,10.87
2019-03-15T07:21:37.666Z,6.77
2019-03-15T07:24:44.489Z,7.93
2019-03-15T07:27:51.731Z,7.53
2019-03-15T07:30:58.537Z,4.40
2019-03-15T07:34:05.368Z,7.67
2019-03-15T07:37:12.184Z,12.20
2019-03-15T07:40:19.095Z,8.50
2019-03-15T07:43:25.909Z,5.83
2019-03-15T07:46:34.158Z,6.77
2019-03-15T07:49:41.118Z,9.97
2019-03-15T07:52:47.934Z,4.93
2019-03-15T07:55:54.881Z,9.83
2019-03-15T07:59:04.807Z,4.83
2019-03-15T08:02:12.954Z,8.87
2019-03-15T08:05:19.828Z,10.90
2019-03-15T08:08:27.864Z,5.97
2019-03-15T08:11:35.024Z,10.13
2019-03-15T08:14:44.863Z,4.23
2019-03-15T08:17:51.758Z,11.10
2019-03-15T08:20:58.578Z,7.37
2019-03-15T08:24:05.439Z,4.67
2019-03-15T08:27:16.074Z,8.33
2019-03-15T08:30:26.116Z,7.37
2019-03-15T08:33:34.235Z,4.10
2019-03-15T08:36:41.122Z,7.93
2019-03-15T08:39:47.942Z,7.87
2019-03-15T08:42:54.755Z,6.10
2019-03-15T08:46:03.002Z,8.47
2019-03-15T08:49:10.027Z,7.70
2019-03-15T08:52:16.937Z,5.63
2019-03-15T08:55:25.793Z,6.73
2019-03-15T08:58:32.763Z,7.27
2019-03-15T09:01:39.650Z,8.40
2019-03-15T09:04:46.489Z,4.03
2019-03-15T09:07:53.315Z,5.83
2019-03-15T09:11:01.411Z,8.13
2019-03-15T09:14:10.290Z,14.43
2019-03-15T09:17:19.910Z,5.20
2019-03-15T09:20:30.058Z,5.90
2019-03-15T09:23:34.330Z,6.03
2019-03-15T09:26:41.177Z,3.87
2019-03-15T09:29:48.010Z,6.07
2019-03-15T09:32:54.848Z,5.93
2019-03-15T09:36:01.646Z,6.30
2019-03-15T09:39:08.541Z,5.07
2019-03-15T09:42:15.380Z,5.93
2019-03-15T09:45:22.242Z,5.00
2019-03-15T09:48:29.162Z,8.30
2019-03-15T09:51:36.190Z,5.83
2019-03-15T09:54:42.995Z,4.93
2019-03-15T09:57:49.848Z,5.90
2019-03-15T10:00:57.117Z,5.53
2019-03-15T10:04:04.508Z,3.10
2019-03-15T10:07:11.461Z,2.90
2019-03-15T10:10:19.195Z,2.20
2019-03-15T10:13:26.670Z,2.97
2019-03-15T10:16:33.663Z,4.90
2019-03-15T10:19:40.610Z,3.37
2019-03-15T10:23:04.079Z,4.73
2019-03-15T10:25:56.110Z,6.20
2019-03-15T10:29:14.664Z,4.97
2019-03-15T10:32:11.490Z,6.47
2019-03-15T10:35:18.753Z,2.60
2019-03-15T10:38:25.691Z,2.03
2019-03-15T10:41:32.794Z,2.67
2019-03-15T10:44:39.721Z,1.77
2019-03-15T10:47:46.662Z,5.03
2019-03-15T10:50:53.592Z,3.27
2019-03-15T10:54:00.599Z,3.00
2019-03-15T10:57:07.535Z,3.73
2019-03-15T11:00:15.097Z,1.53
2019-03-15T11:03:22.216Z,3.17
2019-03-15T11:06:29.119Z,1.73
2019-03-15T11:09:36.036Z,2.80
2019-03-15T11:12:42.940Z,1.80
2019-03-15T11:15:49.788Z,1.57
2019-03-15T11:18:56.701Z,4.53
2019-03-15T11:22:03.711Z,4.30
2019-03-15T11:25:11.073Z,3.83
2019-03-15T11:28:20.432Z,2.07
2019-03-15T11:31:26.655Z,1.77
2019-03-15T11:34:33.666Z,3.37
2019-03-15T11:37:40.582Z,2.53
2019-03-15T11:40:47.545Z,1.60
2019-03-15T11:43:54.565Z,2.33
2019-03-15T11:47:01.471Z,2.43
2019-03-15T11:50:09.012Z,1.53
2019-03-15T11:53:18.814Z,2.10
2019-03-15T11:56:27.141Z,3.77
2019-03-15T11:59:36.123Z,1.07
2019-03-15T12:02:41.772Z,2.20
2019-03-15T12:05:48.637Z,1.97
2019-03-15T12:08:55.508Z,1.40
2019-03-15T12:12:02.488Z,3.40
2019-03-15T12:15:10.105Z,1.97
2019-03-15T12:18:17.456Z,1.73
2019-03-15T12:21:24.343Z,1.20
2019-03-15T12:24:31.610Z,1.50
2019-03-15T12:27:38.539Z,1.00
2019-03-15T12:30:46.208Z,0.80
2019-03-15T12:33:53.071Z,0.70
2019-03-15T12:37:00.008Z,0.80
2019-03-15T12:40:07.863Z,2.30
2019-03-15T12:43:14.797Z,1.70
2019-03-15T12:46:21.732Z,1.00
2019-03-15T12:49:28.683Z,1.07
2019-03-15T12:52:46.492Z,1.37
2019-03-15T12:55:44.334Z,0.80
2019-03-15T12:58:52.044Z,2.33
2019-03-15T13:01:58.935Z,1.63
2019-03-15T13:05:05.997Z,0.70
2019-03-15T13:08:12.896Z,0.63
2019-03-15T13:11:20.192Z,1.00
2019-03-15T13:14:27.097Z,2.13
2019-03-15T13:17:34.101Z,1.00
2019-03-15T13:20:41.046Z,0.80
2019-03-15T13:23:47.976Z,1.27
2019-03-15T13:27:06.866Z,0.73
2019-03-15T13:30:03.497Z,0.63
2019-03-15T13:33:20.317Z,0.50
2019-03-15T13:36:19.072Z,1.43
2019-03-15T13:39:25.953Z,1.60
2019-03-15T13:42:33.032Z,0.60
2019-03-15T13:45:40.118Z,0.60
2019-03-15T13:48:47.137Z,2.57
2019-03-15T13:51:54.048Z,1.47
2019-03-15T13:55:00.914Z,1.70
2019-03-15T13:58:07.822Z,1.03
2019-03-15T14:01:14.721Z,1.33
2019-03-15T14:04:21.655Z,0.83
2019-03-15T14:07:28.550Z,2.20
2019-03-15T14:10:48.628Z,1.50
2019-03-15T14:13:45.237Z,0.83
2019-03-15T14:16:52.249Z,0.87
2019-03-15T14:19:59.094Z,0.80
2019-03-15T14:23:05.958Z,0.90
2019-03-15T14:26:12.927Z,1.17
2019-03-15T14:29:19.839Z,0.80
2019-03-15T14:32:26.724Z,1.33
2019-03-15T14:35:33.713Z,0.70
2019-03-15T14:38:40.712Z,0.63
2019-03-15T14:41:47.655Z,0.60
2019-03-15T14:44:54.796Z,0.60
2019-03-15T14:48:01.795Z,0.93
2019-03-15T14:51:08.724Z,2.13
2019-03-15T14:54:15.662Z,0.53
2019-03-15T14:57:22.586Z,2.00
2019-03-15T15:00:29.441Z,1.20
2019-03-15T15:03:36.426Z,0.50
2019-03-15T15:06:43.352Z,0.70
2019-03-15T15:09:50.208Z,0.93
2019-03-15T15:12:57.188Z,0.80
2019-03-15T15:16:04.116Z,1.80
2019-03-15T15:19:11.082Z,1.10
2019-03-15T15:22:17.946Z,5.53
2019-03-15T15:25:24.860Z,2.10
2019-03-15T15:28:31.801Z,1.30
2019-03-15T15:31:38.791Z,2.07
2019-03-15T15:34:45.724Z,1.17
2019-03-15T15:37:52.684Z,1.00
2019-03-15T15:40:59.629Z,2.00
2019-03-15T15:44:06.587Z,5.03
2019-03-15T15:47:13.546Z,4.00
2019-03-15T17:44:08.236Z,2.50
2019-03-15T17:47:15.201Z,1.20
2019-03-15T17:50:22.202Z,1.87
2019-03-15T17:53:29.157Z,2.60
2019-03-15T17:56:39.255Z,3.93
2019-03-15T18:00:13.213Z,2.73
2019-03-15T18:03:21.907Z,1.97
2019-03-15T18:06:29.316Z,1.63
2019-03-15T18:09:37.375Z,1.10
2019-03-15T18:12:44.330Z,1.83
2019-03-15T18:15:51.250Z,1.17
2019-03-15T18:18:58.167Z,2.37
2019-03-15T18:22:05.100Z,3.77
2019-03-15T18:25:12.111Z,0.60
2019-03-15T18:28:19.058Z,2.57
2019-03-15T18:31:30.324Z,1.40
2019-03-15T18:34:37.769Z,2.07
2019-03-15T18:37:44.910Z,3.63
2019-03-15T18:40:53.392Z,4.13
2019-03-15T18:44:00.283Z,1.60
2019-03-15T18:47:07.770Z,1.03
2019-03-15T18:50:17.797Z,1.87
2019-03-15T18:53:25.291Z,0.67
2019-03-15T18:56:33.796Z,0.70
2019-03-15T18:59:40.741Z,0.30
2019-03-15T19:02:50.093Z,0.93
2019-03-15T19:05:57.617Z,2.00
2019-03-15T19:09:07.179Z,0.70
2019-03-15T19:12:14.063Z,1.50
2019-03-15T19:15:21.283Z,1.33
2019-03-15T19:18:30.371Z,2.33
2019-03-15T19:21:37.303Z,2.30
2019-03-15T19:24:44.197Z,2.40
2019-03-15T19:27:56.694Z,2.33
2019-03-15T19:31:03.616Z,2.20
2019-03-15T19:34:10.688Z,2.43
2019-03-15T19:37:17.538Z,5.27
2019-03-15T19:40:25.447Z,2.53
2019-03-15T19:43:32.415Z,3.87
2019-03-15T19:46:39.901Z,1.93
2019-03-15T19:49:46.803Z,1.07
2019-03-15T19:52:53.645Z,4.40
2019-03-15T19:56:01.096Z,6.40
2019-03-15T19:59:08.018Z,5.20
2019-03-15T20:02:14.952Z,2.47
2019-03-15T20:05:25.814Z,3.17
2019-03-15T20:08:32.702Z,5.90
2019-03-15T20:11:39.887Z,5.27
2019-03-15T20:14:47.144Z,4.53
2019-03-15T20:17:54.129Z,7.73
2019-03-15T20:21:01.075Z,2.13
2019-03-15T20:24:08.021Z,7.87
2019-03-15T20:27:14.934Z,2.50
2019-03-15T20:30:27.492Z,5.03
2019-03-15T20:33:34.610Z,5.50
2019-03-15T20:36:41.467Z,5.80
2019-03-15T20:39:48.347Z,8.17
2019-03-15T20:42:55.283Z,4.20
2019-03-15T20:46:02.183Z,7.83
2019-03-15T20:49:10.961Z,7.30
2019-03-15T20:52:17.867Z,7.10
2019-03-15T20:55:27.204Z,9.93
2019-03-15T20:58:33.504Z,9.27
2019-03-15T21:01:43.784Z,3.40
2019-03-15T21:04:50.721Z,7.33
2019-03-15T21:07:57.784Z,5.27
2019-03-15T21:11:04.710Z,5.20
2019-03-15T21:14:14.146Z,3.90
2019-03-15T21:17:29.701Z,4.37
2019-03-15T21:20:43.417Z,3.73
2019-03-15T21:24:06.428Z,7.27
2019-03-15T21:27:14.054Z,7.80
2019-03-15T21:30:21.326Z,3.40
2019-03-15T21:33:29.002Z,5.97
2019-03-15T21:36:36.093Z,7.10
2019-03-15T22:40:32.765Z,8.00
2019-03-15T22:43:39.798Z,3.47
2019-03-15T22:46:47.611Z,3.17
2019-03-15T22:49:54.639Z,8.27
2019-03-15T22:53:03.773Z,4.07
2019-03-15T22:56:10.716Z,16.43
2019-03-15T22:59:17.633Z,2.97
2019-03-15T23:02:24.515Z,3.27
2019-03-15T23:05:31.380Z,5.07
2019-03-15T23:08:38.342Z,4.97
2019-03-15T23:11:45.326Z,4.73
2019-03-15T23:14:52.248Z,4.17
2019-03-15T23:17:59.103Z,5.97
2019-03-15T23:21:06.029Z,6.50
2019-03-15T23:24:12.983Z,5.07
2019-03-15T23:27:19.842Z,6.40
2019-03-15T23:30:26.715Z,5.93
2019-03-15T23:33:33.635Z,3.27
2019-03-15T23:36:40.584Z,3.40
2019-03-15T23:39:47.562Z,10.87
2019-03-15T23:42:54.434Z,4.53
2019-03-15T23:46:01.385Z,4.77
2019-03-15T23:49:08.312Z,4.27
2019-03-15T23:52:15.284Z,4.03
2019-03-15T23:55:22.206Z,8.00
2019-03-15T23:58:29.119Z,4.50
